Time;durP1;ratioP1;P1;durP2;ratioP2;P2;SDS_P1;SDS_P2;PMS_P1;PMS_P2;Temp;Humidity;BMP_temperature;BMP_pressure;BME280_temperature;BME280_humidity;BME280_pressure;Samples;Min_cycle;Max_cycle;Signal;HPM_P1;HPM_P2
2022/05/28 00:01:42;;;;;;;0.00;0.00;;;10.40;99.90;;;;;;5012835;28;20041;-84
2022/05/28 00:04:08;;;;;;;0.08;0.08;;;10.40;99.90;;;;;;5012985;28;20095;-83
2022/05/28 00:06:35;;;;;;;11.68;1.65;;;10.30;99.90;;;;;;5012863;28;20033;-84
2022/05/28 00:09:01;;;;;;;0.00;0.00;;;10.30;99.90;;;;;;4996485;28;20523;-84
2022/05/28 00:11:29;;;;;;;28.67;1.00;;;10.20;99.90;;;;;;4996184;28;20077;-84
2022/05/28 00:13:56;;;;;;;0.10;0.10;;;10.10;99.90;;;;;;5012810;28;20515;-84
2022/05/28 00:16:22;;;;;;;0.00;0.00;;;10.90;99.90;;;;;;4996756;28;20530;-85
2022/05/28 00:18:49;;;;;;;0.00;0.00;;;10.10;99.90;;;;;;4996274;28;20034;-86
2022/05/28 00:21:15;;;;;;;0.10;0.10;;;10.30;99.90;;;;;;5012300;28;21820;-86
2022/05/28 00:23:44;;;;;;;0.10;0.10;;;10.30;99.90;;;;;;5012490;28;20034;-86
2022/05/28 00:26:10;;;;;;;0.10;0.10;;;9.90;99.90;;;;;;5012823;28;20116;-86
2022/05/28 00:28:37;;;;;;;0.00;0.00;;;10.20;99.90;;;;;;4996416;28;20527;-86
2022/05/28 00:31:03;;;;;;;20.13;0.50;;;9.80;99.90;;;;;;5012606;28;20030;-86
2022/05/28 00:33:30;;;;;;;0.10;0.10;;;9.80;99.90;;;;;;5013118;28;20176;-84
2022/05/28 00:35:59;;;;;;;0.10;0.10;;;9.80;99.90;;;;;;5028492;28;20054;-84
2022/05/28 00:38:27;;;;;;;0.10;0.10;;;9.80;99.90;;;;;;4996193;28;20046;-84
2022/05/28 00:40:58;;;;;;;0.10;0.10;;;9.80;99.90;;;;;;4996196;28;20038;-84
2022/05/28 00:43:24;;;;;;;0.20;0.20;;;9.80;99.90;;;;;;4996098;28;20103;-84
2022/05/28 00:45:54;;;;;;;0.82;0.82;;;9.80;99.90;;;;;;4996452;28;20117;-84
2022/05/28 00:48:29;;;;;;;0.00;0.00;;;9.80;99.90;;;;;;5012626;28;20042;-84
2022/05/28 00:50:58;;;;;;;0.00;0.00;;;9.80;99.90;;;;;;5012372;28;20038;-88
2022/05/28 00:53:25;;;;;;;0.17;0.17;;;10.50;99.90;;;;;;5012683;28;20034;-89
2022/05/28 00:55:50;;;;;;;0.03;0.03;;;9.70;99.90;;;;;;5012494;28;20038;-89
2022/05/28 00:58:16;;;;;;;0.17;0.17;;;9.80;99.90;;;;;;4995952;28;20049;-89
2022/05/28 01:00:42;;;;;;;0.10;0.10;;;9.80;99.90;;;;;;5012215;28;20104;-89
2022/05/28 01:03:32;;;;;;;0.00;0.00;;;9.90;99.90;;;;;;5012431;28;20042;-89
2022/05/28 01:06:33;;;;;;;0.13;0.13;;;9.80;99.90;;;;;;4994682;28;20075;-84
2022/05/28 01:09:12;;;;;;;0.03;0.03;;;9.70;99.90;;;;;;5019667;28;20052;-84
2022/05/28 01:11:49;;;;;;;0.00;0.00;;;9.70;99.90;;;;;;5011815;28;20153;-84
2022/05/28 01:14:30;;;;;;;0.13;0.13;;;9.60;99.90;;;;;;5012266;28;20049;-84
2022/05/28 01:17:00;;;;;;;0.00;0.00;;;9.50;99.90;;;;;;5012927;28;20045;-84
2022/05/28 01:19:47;;;;;;;0.00;0.00;;;9.60;99.90;;;;;;5012064;28;20044;-84
2022/05/28 01:22:43;;;;;;;6.35;1.55;;;9.40;99.90;;;;;;5027718;28;20042;-88
2022/05/28 01:25:38;;;;;;;4.07;1.17;;;9.50;99.90;;;;;;5011786;28;20071;-88
2022/05/28 01:28:07;;;;;;;0.10;0.10;;;9.40;99.90;;;;;;4983050;28;20128;-89
2022/05/28 01:30:33;;;;;;;0.00;0.00;;;9.40;99.90;;;;;;4992449;28;20046;-88
2022/05/28 01:33:01;;;;;;;0.68;0.47;;;9.40;99.90;;;;;;4992691;28;20125;-88
2022/05/28 01:35:29;;;;;;;0.10;0.10;;;9.50;99.90;;;;;;4983120;28;20061;-88
2022/05/28 01:37:58;;;;;;;0.10;0.10;;;9.60;99.90;;;;;;4998886;28;20042;-88
2022/05/28 01:40:27;;;;;;;0.00;0.00;;;9.30;99.90;;;;;;5015598;28;20049;-86
2022/05/28 01:42:56;;;;;;;0.00;0.00;;;9.20;99.90;;;;;;5015513;28;20065;-85
2022/05/28 01:45:27;;;;;;;0.00;0.00;;;9.60;99.90;;;;;;4999431;28;20073;-86
2022/05/28 01:47:55;;;;;;;0.10;0.10;;;9.30;99.90;;;;;;5015352;28;20518;-85
2022/05/28 01:50:25;;;;;;;0.13;0.13;;;9.30;99.90;;;;;;4999374;28;20145;-85
2022/05/28 01:52:52;;;;;;;0.10;0.10;;;9.30;99.90;;;;;;4999155;28;20107;-85
2022/05/28 01:55:21;;;;;;;0.00;0.00;;;9.40;99.90;;;;;;5015573;28;20488;-86
2022/05/28 01:57:47;;;;;;;0.00;0.00;;;9.40;99.90;;;;;;5015282;28;20045;-85
2022/05/28 02:00:13;;;;;;;0.10;0.10;;;9.40;99.90;;;;;;5015156;28;20512;-86
2022/05/28 02:02:39;;;;;;;0.57;0.45;;;9.40;99.90;;;;;;5015188;28;20038;-85
2022/05/28 02:05:05;;;;;;;0.00;0.00;;;10.10;99.90;;;;;;4999006;28;20041;-86
2022/05/28 02:07:31;;;;;;;0.15;0.15;;;9.30;99.90;;;;;;5015154;28;20522;-85
2022/05/28 02:10:04;;;;;;;0.10;0.10;;;9.50;99.90;;;;;;4998214;28;20046;-85
2022/05/28 02:13:01;;;;;;;0.00;0.00;;;9.40;99.90;;;;;;5015126;28;20120;-84
2022/05/28 02:15:39;;;;;;;0.00;0.00;;;9.40;99.90;;;;;;5014187;28;20085;-84
2022/05/28 02:18:32;;;;;;;0.10;0.10;;;9.40;99.90;;;;;;5015111;28;20042;-84
2022/05/28 02:21:08;;;;;;;0.25;0.25;;;9.40;99.90;;;;;;4998395;28;20460;-84
2022/05/28 02:23:49;;;;;;;1.85;0.47;;;9.40;99.90;;;;;;5031884;28;20404;-84
2022/05/28 02:26:24;;;;;;;0.00;0.00;;;9.50;99.90;;;;;;5015070;28;20056;-84
2022/05/28 02:28:51;;;;;;;0.10;0.10;;;9.50;99.90;;;;;;5031870;28;20046;-85
2022/05/28 02:31:29;;;;;;;0.00;0.00;;;10.30;99.90;;;;;;5031396;28;20042;-86
2022/05/28 02:33:55;;;;;;;0.10;0.10;;;9.70;99.90;;;;;;5014560;28;20038;-85
2022/05/28 02:36:21;;;;;;;0.10;0.10;;;9.60;99.90;;;;;;4998494;28;20058;-85
2022/05/28 02:38:47;;;;;;;0.45;0.45;;;9.60;99.90;;;;;;5014200;28;20481;-86
2022/05/28 02:41:13;;;;;;;0.10;0.10;;;9.60;99.90;;;;;;4998694;28;20046;-85
2022/05/28 02:43:39;;;;;;;0.10;0.10;;;9.60;99.90;;;;;;5014649;28;20128;-85
2022/05/28 02:46:06;;;;;;;12.30;0.47;;;9.60;99.90;;;;;;5014507;28;20117;-86
2022/05/28 02:48:32;;;;;;;0.08;0.08;;;9.60;99.90;;;;;;5014487;28;20038;-86
2022/05/28 02:51:06;;;;;;;0.00;0.00;;;9.50;99.90;;;;;;5030755;28;20045;-86
2022/05/28 02:53:32;;;;;;;0.00;0.00;;;9.60;99.90;;;;;;5014523;28;20073;-86
2022/05/28 02:55:58;;;;;;;0.00;0.00;;;9.60;99.90;;;;;;5014116;28;20046;-86
2022/05/28 02:58:24;;;;;;;0.10;0.10;;;8.80;99.90;;;;;;5014110;28;20048;-86
2022/05/28 03:00:50;;;;;;;1.23;1.13;;;9.70;99.90;;;;;;4998019;28;20037;-86
2022/05/28 03:03:19;;;;;;;3.30;0.25;;;9.70;99.90;;;;;;4997854;28;20042;-90
2022/05/28 03:05:49;;;;;;;0.00;0.00;;;9.60;99.90;;;;;;4982099;28;20103;-89
2022/05/28 03:08:16;;;;;;;0.10;0.10;;;9.60;99.90;;;;;;4997595;28;20073;-89
2022/05/28 03:10:42;;;;;;;0.00;0.00;;;9.60;99.90;;;;;;4998156;28;20390;-89
2022/05/28 03:13:08;;;;;;;0.00;0.00;;;9.50;99.90;;;;;;5030644;28;20436;-89
2022/05/28 03:15:34;;;;;;;0.00;0.00;;;9.50;99.90;;;;;;4997361;28;20042;-89
2022/05/28 03:18:00;;;;;;;0.00;0.00;;;9.40;99.90;;;;;;4997423;28;20112;-89
2022/05/28 03:20:27;;;;;;;1.55;1.17;;;9.40;99.90;;;;;;4997092;28;20092;-85
2022/05/28 03:22:53;;;;;;;2.03;1.50;;;9.50;99.90;;;;;;5030204;28;20552;-85
2022/05/28 03:25:19;;;;;;;0.00;0.00;;;9.50;99.90;;;;;;4997381;28;20515;-85
2022/05/28 03:27:45;;;;;;;0.30;0.30;;;9.60;99.90;;;;;;4997543;28;20373;-85
2022/05/28 03:30:11;;;;;;;0.00;0.00;;;9.50;99.90;;;;;;4997553;28;20120;-85
2022/05/28 03:32:37;;;;;;;22.38;2.83;;;9.50;99.90;;;;;;5029646;28;20041;-85
2022/05/28 03:35:03;;;;;;;0.00;0.00;;;9.60;99.90;;;;;;5013370;28;20413;-86
2022/05/28 03:37:29;;;;;;;0.10;0.10;;;9.60;99.90;;;;;;4997404;28;20132;-85
2022/05/28 03:39:55;;;;;;;0.20;0.20;;;9.60;99.90;;;;;;5013533;28;20161;-86
2022/05/28 03:42:20;;;;;;;0.00;0.00;;;10.20;99.90;;;;;;4997103;28;20400;-85
2022/05/28 03:44:46;;;;;;;0.20;0.20;;;9.70;99.90;;;;;;5008536;28;20060;-85
2022/05/28 03:47:12;;;;;;;0.30;0.30;;;9.80;99.90;;;;;;5013734;28;20050;-85
2022/05/28 03:49:40;;;;;;;0.15;0.15;;;9.70;99.90;;;;;;5035644;22;20059;-86
2022/05/28 03:52:06;;;;;;;0.00;0.00;;;10.00;99.90;;;;;;5035622;28;20041;-86
2022/05/28 03:54:32;;;;;;;0.85;0.22;;;9.60;99.90;;;;;;5035750;28;20041;-86
2022/05/28 03:57:03;;;;;;;0.82;0.08;;;9.60;99.90;;;;;;5035888;28;20051;-86
2022/05/28 03:59:29;;;;;;;0.20;0.20;;;9.60;99.90;;;;;;5052128;28;20078;-87
2022/05/28 04:01:56;;;;;;;0.10;0.10;;;9.60;99.90;;;;;;5051890;28;20041;-86
2022/05/28 04:04:21;;;;;;;1.75;1.65;;;9.70;99.90;;;;;;5035336;28;20454;-86
2022/05/28 04:06:47;;;;;;;0.80;0.73;;;10.30;99.90;;;;;;5019122;28;20072;-86
2022/05/28 04:09:13;;;;;;;0.00;0.00;;;9.80;99.90;;;;;;5052504;28;20427;-85
2022/05/28 04:11:39;;;;;;;0.10;0.10;;;9.90;99.90;;;;;;5035832;28;20040;-85
2022/05/28 04:14:05;;;;;;;0.00;0.00;;;9.90;99.90;;;;;;5048011;28;20175;-85
2022/05/28 04:16:32;;;;;;;0.20;0.20;;;9.90;99.90;;;;;;5035675;28;20052;-85
2022/05/28 04:18:58;;;;;;;1.55;0.75;;;10.10;99.90;;;;;;5068847;28;20482;-85
2022/05/28 04:21:24;;;;;;;0.00;0.00;;;9.90;99.90;;;;;;5035602;28;20051;-85
2022/05/28 04:23:50;;;;;;;0.70;0.70;;;9.80;99.90;;;;;;5035347;28;20535;-85
2022/05/28 04:26:16;;;;;;;0.15;0.15;;;9.80;99.90;;;;;;5034897;28;20036;-90
2022/05/28 04:28:41;;;;;;;0.00;0.00;;;9.80;99.90;;;;;;5035642;28;20037;-90
2022/05/28 04:31:07;;;;;;;0.20;0.20;;;9.80;99.90;;;;;;5035934;28;20041;-90
2022/05/28 04:33:33;;;;;;;0.00;0.00;;;9.90;99.90;;;;;;5018787;28;20466;-90
2022/05/28 04:35:59;;;;;;;0.10;0.10;;;10.00;99.90;;;;;;5035567;28;20108;-89
2022/05/28 04:38:25;;;;;;;0.10;0.10;;;9.90;99.90;;;;;;5002354;28;20044;-90
2022/05/28 04:40:51;;;;;;;0.00;0.00;;;9.90;99.90;;;;;;5051925;28;20075;-90
2022/05/28 04:43:18;;;;;;;0.00;0.00;;;10.00;99.90;;;;;;5035249;28;20033;-85
2022/05/28 04:45:45;;;;;;;0.10;0.10;;;10.90;99.90;;;;;;5051583;28;20457;-86
2022/05/28 04:48:11;;;;;;;1.10;1.00;;;10.20;99.90;;;;;;5024588;28;20069;-85
2022/05/28 04:50:37;;;;;;;0.00;0.00;;;10.20;99.90;;;;;;5034850;28;20056;-85
2022/05/28 04:53:03;;;;;;;0.10;0.10;;;10.30;99.90;;;;;;5034976;28;20060;-85
2022/05/28 04:55:29;;;;;;;0.00;0.00;;;10.50;99.90;;;;;;5035549;28;20368;-85
2022/05/28 04:57:55;;;;;;;0.00;0.00;;;10.70;99.90;;;;;;5052023;28;20047;-86
2022/05/28 05:00:23;;;;;;;0.00;0.00;;;10.70;99.90;;;;;;5018881;28;20037;-85
2022/05/28 05:02:49;;;;;;;0.10;0.10;;;10.70;99.90;;;;;;5051399;28;20505;-84
2022/05/28 05:05:15;;;;;;;0.40;0.30;;;10.70;99.90;;;;;;5002385;28;20040;-85
2022/05/28 05:07:40;;;;;;;0.00;0.00;;;10.70;99.90;;;;;;5018461;28;20040;-85
2022/05/28 05:10:07;;;;;;;0.00;0.00;;;10.80;99.90;;;;;;5018562;28;20033;-85
2022/05/28 05:12:33;;;;;;;0.00;0.00;;;10.80;99.90;;;;;;5037779;28;20510;-84
2022/05/28 05:14:59;;;;;;;0.10;0.10;;;;;;;;;;5055282;28;20395;-84
2022/05/28 05:17:25;;;;;;;1.00;1.00;;;10.90;99.90;;;;;;5022680;28;20514;-86
2022/05/28 05:19:52;;;;;;;0.00;0.00;;;10.90;99.90;;;;;;5039392;28;20041;-86
2022/05/28 05:22:18;;;;;;;0.10;0.10;;;10.90;99.90;;;;;;5038140;28;20041;-85
2022/05/28 05:24:44;;;;;;;0.00;0.00;;;11.00;99.90;;;;;;5055218;28;20068;-85
2022/05/28 05:27:10;;;;;;;0.50;0.50;;;10.80;99.90;;;;;;5038925;28;20037;-84
2022/05/28 05:29:37;;;;;;;0.00;0.00;;;10.60;99.90;;;;;;5038728;28;20033;-84
2022/05/28 05:32:04;;;;;;;0.00;0.00;;;10.40;99.90;;;;;;5022193;28;20442;-87
2022/05/28 05:34:29;;;;;;;0.03;0.03;;;10.30;99.90;;;;;;5055021;28;20072;-87
2022/05/28 05:36:55;;;;;;;0.43;0.40;;;10.20;99.90;;;;;;5054265;28;20471;-88
2022/05/28 05:39:21;;;;;;;0.00;0.00;;;10.10;99.90;;;;;;5037561;28;20275;-87
2022/05/28 05:41:46;;;;;;;0.00;0.00;;;10.10;99.90;;;;;;5054985;28;20059;-87
2022/05/28 05:44:12;;;;;;;0.20;0.20;;;10.00;99.90;;;;;;5038239;28;20441;-87
2022/05/28 05:46:43;;;;;;;0.00;0.00;;;10.00;99.90;;;;;;5054899;28;20036;-87
2022/05/28 05:49:10;;;;;;;0.08;0.08;;;10.00;99.90;;;;;;5041217;28;20053;-84
2022/05/28 05:51:45;;;;;;;0.10;0.10;;;10.00;99.90;;;;;;5057642;28;20113;-83
2022/05/28 05:54:12;;;;;;;0.15;0.15;;;10.10;99.90;;;;;;5058054;28;20101;-83
2022/05/28 05:56:41;;;;;;;0.10;0.10;;;10.20;99.90;;;;;;5057968;28;20551;-83
2022/05/28 05:59:07;;;;;;;0.00;0.00;;;10.40;99.90;;;;;;5023968;28;20051;-83
2022/05/28 06:01:33;;;;;;;0.00;0.00;;;10.70;99.90;;;;;;5057384;28;20040;-84
2022/05/28 06:03:58;;;;;;;0.00;0.00;;;11.10;99.90;;;;;;5041171;28;20036;-83
2022/05/28 06:06:25;;;;;;;0.85;0.52;;;11.40;99.90;;;;;;5040682;28;20398;-83
2022/05/28 06:08:51;;;;;;;0.20;0.20;;;11.60;99.90;;;;;;5043635;28;20119;-83
2022/05/28 06:11:16;;;;;;;0.20;0.20;;;12.00;99.90;;;;;;5074276;28;20485;-85
2022/05/28 06:13:42;;;;;;;0.10;0.10;;;12.50;99.90;;;;;;5040556;28;20483;-83
2022/05/28 06:16:08;;;;;;;0.00;0.00;;;12.90;99.90;;;;;;5057768;28;20047;-83
2022/05/28 06:18:34;;;;;;;0.13;0.13;;;13.30;99.90;;;;;;5023844;28;20044;-83
2022/05/28 06:21:03;;;;;;;0.08;0.08;;;13.70;99.90;;;;;;5057699;28;20139;-83
2022/05/28 06:23:30;;;;;;;0.60;0.60;;;13.90;99.90;;;;;;5041128;28;20045;-86
2022/05/28 06:25:56;;;;;;;0.20;0.15;;;13.80;99.90;;;;;;5058412;28;20381;-85
2022/05/28 06:28:22;;;;;;;0.03;0.03;;;13.40;99.90;;;;;;5062148;28;20127;-86
2022/05/28 06:30:50;;;;;;;0.60;0.15;;;13.10;99.90;;;;;;5077833;28;20486;-86
2022/05/28 06:33:17;;;;;;;0.10;0.10;;;13.10;99.90;;;;;;5041751;28;20101;-86
2022/05/28 06:35:43;;;;;;;0.05;0.05;;;13.50;99.90;;;;;;5042883;28;20037;-87
2022/05/28 06:38:09;;;;;;;0.00;0.00;;;14.40;99.90;;;;;;5057413;28;20048;-86
2022/05/28 06:40:35;;;;;;;0.00;0.00;;;14.80;99.90;;;;;;5041622;28;20405;-90
2022/05/28 06:43:02;;;;;;;0.60;0.60;;;15.00;99.90;;;;;;5037337;28;20041;-90
2022/05/28 06:45:27;;;;;;;0.35;0.30;;;14.80;99.90;;;;;;5037875;28;20048;-92
2022/05/28 06:47:53;;;;;;;1.48;0.57;;;14.70;99.90;;;;;;5052818;28;20037;-90
2022/05/28 06:53:08;;;;;;;0.00;0.00;;;14.10;99.90;;;;;;5057354;28;20048;-90
2022/05/28 06:55:38;;;;;;;0.08;0.08;;;13.70;99.90;;;;;;5057244;28;20323;-90
2022/05/28 06:58:06;;;;;;;0.25;0.25;;;13.40;99.90;;;;;;5056950;28;20059;-89
2022/05/28 07:00:32;;;;;;;0.57;0.57;;;13.30;99.90;;;;;;5057047;28;20048;-91
2022/05/28 07:02:58;;;;;;;0.10;0.10;;;13.30;99.90;;;;;;5057034;28;20048;-90
2022/05/28 07:05:24;;;;;;;0.40;0.40;;;13.30;99.90;;;;;;5056929;28;20040;-90
2022/05/28 07:07:50;;;;;;;0.10;0.10;;;13.00;99.90;;;;;;5056989;28;20372;-89
2022/05/28 07:10:16;;;;;;;0.47;0.40;;;13.00;99.90;;;;;;5016010;28;20131;-90
2022/05/28 07:12:42;;;;;;;0.00;0.00;;;13.20;99.90;;;;;;5067732;28;20179;-87
2022/05/28 07:15:08;;;;;;;0.00;0.00;;;13.40;99.90;;;;;;5050310;28;20037;-85
2022/05/28 07:17:34;;;;;;;0.13;0.13;;;13.60;99.90;;;;;;5030655;28;20044;-85
2022/05/28 07:20:00;;;;;;;0.00;0.00;;;13.80;99.90;;;;;;5055726;28;20122;-86
2022/05/28 07:22:26;;;;;;;0.45;0.40;;;13.80;99.90;;;;;;5039888;28;20127;-86
2022/05/28 07:24:51;;;;;;;0.25;0.22;;;13.80;99.90;;;;;;5040184;28;20067;-85
2022/05/28 07:27:18;;;;;;;0.85;0.85;;;13.90;99.90;;;;;;5056648;28;20036;-85
2022/05/28 07:29:44;;;;;;;4.18;1.02;;;14.00;99.90;;;;;;5064095;28;20111;-87
2022/05/28 07:32:10;;;;;;;0.00;0.00;;;14.20;99.90;;;;;;5040341;28;20158;-86
2022/05/28 07:34:36;;;;;;;0.00;0.00;;;14.20;99.90;;;;;;5022864;28;20037;-86
2022/05/28 07:37:01;;;;;;;0.13;0.13;;;14.70;99.90;;;;;;5039728;28;20075;-86
2022/05/28 07:39:27;;;;;;;1.00;0.30;;;14.60;99.90;;;;;;5039816;28;20044;-87
2022/05/28 07:41:52;;;;;;;0.20;0.20;;;14.40;99.90;;;;;;5022548;28;20406;-88
2022/05/28 07:44:18;;;;;;;0.63;0.63;;;14.30;99.90;;;;;;5033294;28;20045;-87
2022/05/28 07:46:45;;;;;;;0.00;0.00;;;14.20;99.90;;;;;;5036682;28;20075;-92
2022/05/28 07:49:10;;;;;;;0.00;0.00;;;14.20;99.90;;;;;;5037069;28;20057;-89
2022/05/28 07:51:37;;;;;;;0.10;0.10;;;14.30;99.90;;;;;;5056545;28;20051;-91
2022/05/28 07:54:05;;;;;;;0.00;0.00;;;14.50;99.90;;;;;;5039469;28;20115;-91
2022/05/28 07:56:30;;;;;;;0.10;0.10;;;14.50;99.90;;;;;;5039698;28;20037;-90
2022/05/28 07:58:58;;;;;;;0.10;0.10;;;14.40;99.90;;;;;;5038963;28;20128;-91
2022/05/28 08:01:29;;;;;;;0.00;0.00;;;14.30;99.90;;;;;;5038362;28;20068;-89
2022/05/28 08:03:59;;;;;;;0.20;0.15;;;14.20;99.90;;;;;;5054219;28;20044;-91
2022/05/28 08:06:25;;;;;;;0.20;0.10;;;14.10;99.90;;;;;;5038371;28;20089;-91
2022/05/28 08:08:51;;;;;;;0.00;0.00;;;14.30;99.90;;;;;;5027614;28;20040;-91
2022/05/28 08:11:18;;;;;;;0.00;0.00;;;14.50;99.90;;;;;;5041097;28;20043;-92
2022/05/28 08:13:44;;;;;;;0.00;0.00;;;14.50;99.90;;;;;;5023177;28;20128;-93
2022/05/28 08:16:10;;;;;;;0.00;0.00;;;14.60;99.90;;;;;;5043656;28;20123;-92
2022/05/28 08:18:37;;;;;;;0.10;0.10;;;16.00;99.90;;;;;;5055958;28;20032;-93
2022/05/28 08:23:48;;;;;;;0.28;0.17;;;17.30;99.90;;;;;;5055949;28;20063;-92
2022/05/28 08:26:15;;;;;;;0.10;0.10;;;16.50;99.90;;;;;;5039935;28;20040;-92
2022/05/28 08:28:41;;;;;;;0.40;0.40;;;16.30;99.90;;;;;;5039416;28;20064;-90
2022/05/28 08:31:08;;;;;;;0.17;0.17;;;15.50;99.90;;;;;;5039375;28;20048;-91
2022/05/28 08:33:34;;;;;;;3.92;1.25;;;15.60;99.90;;;;;;5039274;28;20044;-91
2022/05/28 08:36:00;;;;;;;6.70;1.13;;;15.90;99.90;;;;;;5055813;28;20029;-87
2022/05/28 08:38:27;;;;;;;0.10;0.10;;;17.00;99.90;;;;;;5022393;28;20059;-86
2022/05/28 08:40:59;;;;;;;0.00;0.00;;;18.00;99.90;;;;;;5038625;28;20036;-86
2022/05/28 08:43:32;;;;;;;0.73;0.73;;;19.00;99.10;;;;;;5055272;28;20041;-86
2022/05/28 08:45:58;;;;;;;2.00;0.63;;;18.30;99.10;;;;;;5055687;28;20046;-86
2022/05/28 08:48:40;;;;;;;0.30;0.30;;;17.60;99.50;;;;;;5055471;28;20043;-87
2022/05/28 08:51:16;;;;;;;0.13;0.13;;;18.20;97.90;;;;;;5071641;28;20094;-86
2022/05/28 08:54:20;;;;;;;5.10;0.30;;;19.40;95.60;;;;;;5072088;28;20494;-87
2022/05/28 08:56:48;;;;;;;0.10;0.10;;;20.60;95.10;;;;;;5031148;28;20054;-87
2022/05/28 08:59:16;;;;;;;0.63;0.20;;;21.20;90.80;;;;;;5037267;28;20044;-87
2022/05/28 09:01:44;;;;;;;0.43;0.43;;;20.50;91.50;;;;;;5055135;28;20051;-87
2022/05/28 09:04:26;;;;;;;0.22;0.15;;;19.60;90.70;;;;;;5038684;28;20032;-86
2022/05/28 09:06:55;;;;;;;0.10;0.10;;;19.50;91.90;;;;;;5055041;28;20413;-87
2022/05/28 09:09:33;;;;;;;0.88;0.40;;;20.60;93.30;;;;;;5055447;28;20072;-87
2022/05/28 09:12:04;;;;;;;0.77;0.77;;;20.30;92.60;;;;;;5034512;28;20037;-85
2022/05/28 09:14:32;;;;;;;0.75;0.70;;;19.20;91.90;;;;;;5045268;28;20051;-87
2022/05/28 09:17:21;;;;;;;1.52;1.42;;;18.50;92.80;;;;;;5054096;28;20041;-87
2022/05/28 09:19:48;;;;;;;0.20;0.20;;;17.90;94.20;;;;;;5037522;28;20119;-87
2022/05/28 09:22:15;;;;;;;0.00;0.00;;;18.50;94.60;;;;;;5020603;28;20495;-87
2022/05/28 09:24:42;;;;;;;0.47;0.40;;;18.60;94.00;;;;;;5045530;28;20399;-88
2022/05/28 09:27:29;;;;;;;0.28;0.28;;;18.60;94.50;;;;;;5020906;28;20072;-92
2022/05/28 09:30:07;;;;;;;0.55;0.55;;;19.30;93.00;;;;;;5055517;28;20481;-92
2022/05/28 09:33:02;;;;;;;0.00;0.00;;;19.10;93.20;;;;;;5054520;28;20473;-93
2022/05/28 09:35:57;;;;;;;0.10;0.10;;;19.00;93.90;;;;;;5062556;28;20036;-94
2022/05/28 09:38:41;;;;;;;0.20;0.20;;;18.40;92.70;;;;;;5052031;28;20095;-93
2022/05/28 09:41:18;;;;;;;0.20;0.20;;;18.50;93.70;;;;;;5038323;28;20040;-92
2022/05/28 09:43:43;;;;;;;0.20;0.20;;;18.10;93.20;;;;;;5051153;28;20482;-87
2022/05/28 09:46:18;;;;;;;1.15;1.05;;;17.60;94.50;;;;;;5021032;28;20040;-87
2022/05/28 09:48:46;;;;;;;0.75;0.30;;;17.60;94.90;;;;;;5045599;28;20124;-87
2022/05/28 09:51:23;;;;;;;0.32;0.28;;;18.00;93.00;;;;;;5017070;28;20148;-87
2022/05/28 09:54:16;;;;;;;0.35;0.35;;;18.40;93.60;;;;;;5030415;28;20033;-88
2022/05/28 09:56:50;;;;;;;0.10;0.10;;;18.00;94.30;;;;;;5030834;28;20041;-87
2022/05/28 09:59:28;;;;;;;0.10;0.10;;;17.20;94.50;;;;;;5034041;28;20071;-86
2022/05/28 10:02:07;;;;;;;0.10;0.10;;;16.80;95.60;;;;;;5034589;28;20506;-87
2022/05/28 10:05:03;;;;;;;0.45;0.45;;;17.10;97.10;;;;;;5034723;28;20545;-88
2022/05/28 10:07:41;;;;;;;0.10;0.10;;;17.70;96.30;;;;;;5021030;28;20076;-88
2022/05/28 10:10:21;;;;;;;0.22;0.22;;;17.60;95.80;;;;;;5025992;28;20112;-87
2022/05/28 10:12:47;;;;;;;0.00;0.00;;;17.40;96.10;;;;;;5012803;28;20042;-87
2022/05/28 10:15:21;;;;;;;0.22;0.22;;;17.20;96.40;;;;;;5017154;28;20438;-87
2022/05/28 10:17:57;;;;;;;0.20;0.20;;;17.00;96.80;;;;;;5015766;28;20073;-84
2022/05/28 10:20:23;;;;;;;;;;;16.70;96.60;;;;;;5034976;28;20037;-87
2022/05/28 10:22:53;;;;;;;0.10;0.10;;;16.40;97.20;;;;;;5034424;28;20331;-87
2022/05/28 10:25:37;;;;;;;0.80;0.63;;;16.10;98.10;;;;;;5029390;28;20037;-87
2022/05/28 10:28:03;;;;;;;0.13;0.13;;;15.70;99.60;;;;;;5018250;28;20034;-87
2022/05/28 10:30:36;;;;;;;0.20;0.20;;;15.50;99.90;;;;;;5018069;28;20124;-87
2022/05/28 10:33:11;;;;;;;0.10;0.10;;;15.20;99.90;;;;;;5034851;28;20049;-94
2022/05/28 10:35:38;;;;;;;0.10;0.10;;;15.00;99.90;;;;;;5019122;28;20041;-94
2022/05/28 10:38:20;;;;;;;0.20;0.20;;;15.00;99.90;;;;;;5018805;28;20132;-94
2022/05/28 10:40:54;;;;;;;0.65;0.65;;;14.90;99.90;;;;;;5018273;28;20052;-94
2022/05/28 10:43:38;;;;;;;0.00;0.00;;;15.20;99.90;;;;;;5031743;28;20068;-94
2022/05/28 10:46:11;;;;;;;0.52;0.47;;;15.40;99.90;;;;;;5033103;28;20038;-92
2022/05/28 10:49:02;;;;;;;0.25;0.25;;;15.60;99.90;;;;;;5029003;28;20045;-94
2022/05/28 10:52:06;;;;;;;0.00;0.00;;;16.50;99.90;;;;;;5014701;28;20042;-89
2022/05/28 10:54:42;;;;;;;0.10;0.10;;;17.80;97.20;;;;;;4989429;28;20133;-90
2022/05/28 10:57:26;;;;;;;;;;;19.70;96.90;;;;;;5039478;28;20041;-86
2022/05/28 11:00:19;;;;;;;0.20;0.20;;;20.30;93.50;;;;;;5017624;28;19963;-87
2022/05/28 11:03:11;;;;;;;0.10;0.10;;;19.70;92.60;;;;;;5032053;28;20045;-87
2022/05/28 11:06:12;;;;;;;0.25;0.20;;;19.30;93.20;;;;;;5002563;28;20048;-88
2022/05/28 11:08:45;;;;;;;0.05;0.05;;;19.50;91.90;;;;;;4978834;28;20038;-88
2022/05/28 11:11:27;;;;;;;0.30;0.28;;;18.90;91.70;;;;;;5010137;28;20041;-88
2022/05/28 11:14:02;;;;;;;0.00;0.00;;;18.40;93.50;;;;;;5039147;28;20539;-88
2022/05/28 11:16:31;;;;;;;0.13;0.05;;;17.80;94.90;;;;;;5017456;28;20037;-88
2022/05/28 11:19:23;;;;;;;0.10;0.10;;;17.20;96.70;;;;;;5034083;28;20044;-88
2022/05/28 11:22:19;;;;;;;0.93;0.93;;;16.90;98.10;;;;;;5000898;28;20053;-88
2022/05/28 11:24:53;;;;;;;1.40;1.10;;;16.50;98.50;;;;;;5014012;28;20100;-88
2022/05/28 11:27:48;;;;;;;0.10;0.10;;;16.50;98.00;;;;;;5014209;28;20099;-88
2022/05/28 11:30:22;;;;;;;0.00;0.00;;;16.90;97.70;;;;;;4997619;28;20050;-88
2022/05/28 11:33:00;;;;;;;0.00;0.00;;;17.00;96.40;;;;;;5018799;28;20044;-88
2022/05/28 11:35:44;;;;;;;0.00;0.00;;;16.80;96.20;;;;;;5033634;28;20137;-88
2022/05/28 11:38:49;;;;;;;0.10;0.10;;;17.20;96.80;;;;;;5033411;28;20152;-88
2022/05/28 11:41:50;;;;;;;0.20;0.20;;;17.90;96.90;;;;;;5017182;28;20438;-87
2022/05/28 11:44:39;;;;;;;0.10;0.10;;;18.80;92.60;;;;;;5019427;28;20110;-88
2022/05/28 11:47:59;;;;;;;1.95;0.80;;;19.20;91.50;;;;;;5016892;28;20051;-87
2022/05/28 11:53:49;;;;;;;0.80;0.80;;;18.60;93.20;;;;;;5051300;28;20087;-87
2022/05/28 11:56:22;;;;;;;0.00;0.00;;;19.30;91.60;;;;;;5016827;28;20115;-87
2022/05/28 11:59:12;;;;;;;0.10;0.10;;;19.20;90.70;;;;;;5047859;28;20044;-88
2022/05/28 12:01:53;;;;;;;0.28;0.28;;;20.30;90.00;;;;;;5034656;28;20048;-88
2022/05/28 12:04:20;;;;;;;0.13;0.13;;;20.30;88.60;;;;;;5036489;28;20394;-88
2022/05/28 12:07:00;;;;;;;0.15;0.15;;;20.40;88.90;;;;;;5016408;28;20486;-87
2022/05/28 12:09:32;;;;;;;0.10;0.10;;;20.90;89.30;;;;;;5067956;28;20372;-87
2022/05/28 12:12:16;;;;;;;0.00;0.00;;;20.40;90.00;;;;;;5051229;28;20271;-88
2022/05/28 12:14:47;;;;;;;0.10;0.10;;;19.90;90.60;;;;;;5052752;28;20545;-86
2022/05/28 12:17:19;;;;;;;0.30;0.30;;;19.30;91.30;;;;;;5052689;28;20120;-85
2022/05/28 12:19:55;;;;;;;1.25;0.80;;;19.00;91.70;;;;;;5052226;28;20044;-86
2022/05/28 12:22:28;;;;;;;2.60;0.25;;;18.80;91.80;;;;;;5051991;28;20431;-86
2022/05/28 12:25:06;;;;;;;0.10;0.10;;;18.60;91.50;;;;;;5048211;28;20099;-86
2022/05/28 12:27:46;;;;;;;0.40;0.40;;;18.10;91.10;;;;;;5016195;28;20048;-86
2022/05/28 12:30:35;;;;;;;0.10;0.10;;;17.90;92.50;;;;;;5051316;28;20036;-86
2022/05/28 12:33:01;;;;;;;0.00;0.00;;;18.00;92.40;;;;;;5052669;28;20368;-85
2022/05/28 12:35:57;;;;;;;0.00;0.00;;;18.30;92.00;;;;;;5051421;28;20132;-85
2022/05/28 12:38:44;;;;;;;0.10;0.10;;;19.10;92.30;;;;;;5036439;28;20044;-86
2022/05/28 12:41:22;;;;;;;0.00;0.00;;;19.70;86.90;;;;;;5035764;28;20037;-86
2022/05/28 12:43:59;;;;;;;0.00;0.00;;;20.00;88.00;;;;;;5052035;28;20079;-85
2022/05/28 12:46:39;;;;;;;0.00;0.00;;;19.40;86.70;;;;;;5034942;28;20118;-86
2022/05/28 12:49:18;;;;;;;0.63;0.63;;;19.20;82.70;;;;;;5036250;28;20044;-87
2022/05/28 12:52:03;;;;;;;0.20;0.20;;;19.30;88.60;;;;;;5055622;28;20059;-87
2022/05/28 12:54:32;;;;;;;0.00;0.00;;;19.50;87.80;;;;;;5039007;28;20044;-85
2022/05/28 12:57:13;;;;;;;0.10;0.10;;;19.50;87.80;;;;;;5053610;28;20040;-86
2022/05/28 12:59:44;;;;;;;0.25;0.25;;;19.80;88.40;;;;;;5038856;28;20056;-86
2022/05/28 13:02:15;;;;;;;0.00;0.00;;;19.90;87.40;;;;;;5038855;28;20387;-87
2022/05/28 13:05:17;;;;;;;0.10;0.10;;;19.90;87.60;;;;;;5055492;28;20032;-87
2022/05/28 13:07:49;;;;;;;0.00;0.00;;;19.70;86.20;;;;;;5036572;28;20037;-88
2022/05/28 13:10:21;;;;;;;0.00;0.00;;;19.40;86.20;;;;;;5055636;28;20040;-88
2022/05/28 13:13:02;;;;;;;0.00;0.00;;;19.30;85.70;;;;;;5038803;28;20044;-89
2022/05/28 13:15:37;;;;;;;0.47;0.47;;;19.70;87.30;;;;;;5055405;28;20086;-89
2022/05/28 13:18:24;;;;;;;0.55;0.55;;;19.80;86.80;;;;;;5054358;28;20394;-88
2022/05/28 13:21:24;;;;;;;0.10;0.10;;;20.20;87.90;;;;;;5055613;28;20045;-86
2022/05/28 13:24:05;;;;;;;0.00;0.00;;;20.00;84.40;;;;;;5052209;28;20053;-86